sensor_id;sensor_type;location;lat;lon;timestamp;pressure;altitude;pressure_sealevel;temperature;humidity
71004;BME280;59025;42.050;-8.660;2022-12-17T00:02:06;100667.09;;;11.47;100.00
71004;BME280;59025;42.050;-8.660;2022-12-17T00:04:51;100678.41;;;11.46;100.00
71004;BME280;59025;42.050;-8.660;2022-12-17T00:07:35;100674.59;;;11.55;100.00
71004;BME280;59025;42.050;-8.660;2022-12-17T00:10:20;100679.16;;;11.47;100.00
71004;BME280;59025;42.050;-8.660;2022-12-17T00:13:04;100695.84;;;11.25;100.00
71004;BME280;59025;42.050;-8.660;2022-12-17T00:15:53;100694.25;;;11.30;100.00
71004;BME280;59025;42.050;-8.660;2022-12-17T00:18:53;100694.09;;;11.12;100.00
71004;BME280;59025;42.050;-8.660;2022-12-17T00:21:37;100694.50;;;11.22;100.00
71004;BME280;59025;42.050;-8.660;2022-12-17T00:24:21;100688.53;;;11.28;100.00
71004;BME280;59025;42.050;-8.660;2022-12-17T00:27:06;100686.28;;;11.58;100.00
71004;BME280;59025;42.050;-8.660;2022-12-17T00:29:51;100665.25;;;11.74;100.00
71004;BME280;59025;42.050;-8.660;2022-12-17T00:32:36;100673.22;;;11.59;100.00
71004;BME280;59025;42.050;-8.660;2022-12-17T00:35:21;100687.47;;;11.55;100.00
71004;BME280;59025;42.050;-8.660;2022-12-17T00:38:05;100685.69;;;11.56;100.00
71004;BME280;59025;42.050;-8.660;2022-12-17T00:40:50;100680.56;;;11.49;100.00
71004;BME280;59025;42.050;-8.660;2022-12-17T00:43:35;100677.41;;;11.41;100.00
71004;BME280;59025;42.050;-8.660;2022-12-17T00:46:19;100674.63;;;11.36;100.00
71004;BME280;59025;42.050;-8.660;2022-12-17T00:49:13;100669.50;;;11.29;100.00
71004;BME280;59025;42.050;-8.660;2022-12-17T00:51:58;100666.31;;;11.27;100.00
71004;BME280;59025;42.050;-8.660;2022-12-17T00:54:43;100663.38;;;11.11;100.00
71004;BME280;59025;42.050;-8.660;2022-12-17T00:57:27;100671.13;;;10.98;100.00
71004;BME280;59025;42.050;-8.660;2022-12-17T01:00:12;100664.41;;;10.77;100.00
71004;BME280;59025;42.050;-8.660;2022-12-17T01:03:06;100660.25;;;10.89;100.00
71004;BME280;59025;42.050;-8.660;2022-12-17T01:05:53;100642.59;;;10.93;100.00
71004;BME280;59025;42.050;-8.660;2022-12-17T01:08:38;100645.56;;;10.51;100.00
71004;BME280;59025;42.050;-8.660;2022-12-17T01:11:23;100657.63;;;10.44;100.00
71004;BME280;59025;42.050;-8.660;2022-12-17T01:14:07;100644.56;;;10.39;100.00
71004;BME280;59025;42.050;-8.660;2022-12-17T01:16:52;100650.25;;;10.28;100.00
71004;BME280;59025;42.050;-8.660;2022-12-17T01:19:36;100660.09;;;10.05;100.00
71004;BME280;59025;42.050;-8.660;2022-12-17T01:22:22;100658.97;;;10.27;100.00
71004;BME280;59025;42.050;-8.660;2022-12-17T01:25:07;100651.28;;;10.40;100.00
71004;BME280;59025;42.050;-8.660;2022-12-17T01:27:52;100650.91;;;10.62;100.00
71004;BME280;59025;42.050;-8.660;2022-12-17T01:30:36;100644.00;;;10.76;100.00
71004;BME280;59025;42.050;-8.660;2022-12-17T01:33:21;100630.72;;;10.85;100.00
71004;BME280;59025;42.050;-8.660;2022-12-17T01:36:06;100621.41;;;11.04;100.00
71004;BME280;59025;42.050;-8.660;2022-12-17T01:38:52;100617.44;;;11.08;100.00
71004;BME280;59025;42.050;-8.660;2022-12-17T01:41:37;100627.16;;;11.06;100.00
71004;BME280;59025;42.050;-8.660;2022-12-17T01:44:44;100641.41;;;11.08;100.00
71004;BME280;59025;42.050;-8.660;2022-12-17T01:47:32;100623.78;;;11.12;100.00
71004;BME280;59025;42.050;-8.660;2022-12-17T01:50:17;100637.84;;;11.16;100.00
71004;BME280;59025;42.050;-8.660;2022-12-17T01:53:05;100637.22;;;11.14;100.00
71004;BME280;59025;42.050;-8.660;2022-12-17T01:55:52;100631.69;;;11.17;100.00
71004;BME280;59025;42.050;-8.660;2022-12-17T01:58:38;100639.41;;;11.17;100.00
71004;BME280;59025;42.050;-8.660;2022-12-17T02:01:29;100633.47;;;11.23;100.00
71004;BME280;59025;42.050;-8.660;2022-12-17T02:04:13;100634.66;;;11.27;100.00
71004;BME280;59025;42.050;-8.660;2022-12-17T02:07:09;100639.19;;;11.31;100.00
71004;BME280;59025;42.050;-8.660;2022-12-17T02:10:01;100636.78;;;11.36;100.00
71004;BME280;59025;42.050;-8.660;2022-12-17T02:12:51;100639.19;;;11.38;100.00
71004;BME280;59025;42.050;-8.660;2022-12-17T02:15:41;100642.34;;;11.40;100.00
71004;BME280;59025;42.050;-8.660;2022-12-17T02:18:33;100649.06;;;11.41;100.00
71004;BME280;59025;42.050;-8.660;2022-12-17T02:21:20;100647.47;;;11.40;100.00
71004;BME280;59025;42.050;-8.660;2022-12-17T02:24:11;100659.38;;;11.41;100.00
71004;BME280;59025;42.050;-8.660;2022-12-17T02:27:00;100646.72;;;11.39;100.00
71004;BME280;59025;42.050;-8.660;2022-12-17T02:29:48;100632.59;;;11.48;100.00
71004;BME280;59025;42.050;-8.660;2022-12-17T02:32:36;100634.78;;;11.51;100.00
71004;BME280;59025;42.050;-8.660;2022-12-17T02:35:24;100622.84;;;11.57;100.00
71004;BME280;59025;42.050;-8.660;2022-12-17T02:38:19;100615.34;;;11.62;100.00
71004;BME280;59025;42.050;-8.660;2022-12-17T02:41:05;100615.16;;;11.63;100.00
71004;BME280;59025;42.050;-8.660;2022-12-17T02:43:52;100629.59;;;11.64;100.00
71004;BME280;59025;42.050;-8.660;2022-12-17T02:46:39;100630.19;;;11.66;100.00
71004;BME280;59025;42.050;-8.660;2022-12-17T02:49:25;100627.22;;;11.69;100.00
71004;BME280;59025;42.050;-8.660;2022-12-17T02:52:10;100635.72;;;11.70;100.00
71004;BME280;59025;42.050;-8.660;2022-12-17T02:54:55;100651.19;;;11.70;100.00
71004;BME280;59025;42.050;-8.660;2022-12-17T02:57:40;100652.59;;;11.66;100.00
71004;BME280;59025;42.050;-8.660;2022-12-17T03:00:26;100650.22;;;11.71;100.00
71004;BME280;59025;42.050;-8.660;2022-12-17T03:03:10;100638.09;;;11.71;100.00
71004;BME280;59025;42.050;-8.660;2022-12-17T03:05:55;100655.34;;;11.58;100.00
71004;BME280;59025;42.050;-8.660;2022-12-17T03:08:39;100665.50;;;11.59;100.00
71004;BME280;59025;42.050;-8.660;2022-12-17T03:11:27;100673.81;;;11.61;100.00
71004;BME280;59025;42.050;-8.660;2022-12-17T03:14:23;100659.72;;;11.64;100.00
71004;BME280;59025;42.050;-8.660;2022-12-17T03:17:17;100658.97;;;11.63;100.00
71004;BME280;59025;42.050;-8.660;2022-12-17T03:20:02;100671.84;;;11.44;100.00
71004;BME280;59025;42.050;-8.660;2022-12-17T03:22:47;100681.38;;;11.30;100.00
71004;BME280;59025;42.050;-8.660;2022-12-17T03:25:31;100688.91;;;11.19;100.00
71004;BME280;59025;42.050;-8.660;2022-12-17T03:28:16;100681.38;;;11.24;100.00
71004;BME280;59025;42.050;-8.660;2022-12-17T03:31:00;100672.28;;;11.34;100.00
71004;BME280;59025;42.050;-8.660;2022-12-17T03:33:46;100660.75;;;11.50;100.00
71004;BME280;59025;42.050;-8.660;2022-12-17T03:36:31;100666.91;;;11.49;100.00
71004;BME280;59025;42.050;-8.660;2022-12-17T03:39:15;100663.13;;;11.51;100.00
71004;BME280;59025;42.050;-8.660;2022-12-17T03:42:00;100696.66;;;11.25;100.00
71004;BME280;59025;42.050;-8.660;2022-12-17T03:44:44;100708.53;;;11.26;100.00
71004;BME280;59025;42.050;-8.660;2022-12-17T03:47:29;100701.78;;;11.45;100.00
71004;BME280;59025;42.050;-8.660;2022-12-17T03:50:15;100680.16;;;11.59;100.00
71004;BME280;59025;42.050;-8.660;2022-12-17T03:53:02;100664.09;;;11.63;100.00
71004;BME280;59025;42.050;-8.660;2022-12-17T03:55:48;100660.75;;;11.56;100.00
71004;BME280;59025;42.050;-8.660;2022-12-17T03:58:38;100658.16;;;11.50;100.00
71004;BME280;59025;42.050;-8.660;2022-12-17T04:01:23;100660.16;;;11.48;100.00
71004;BME280;59025;42.050;-8.660;2022-12-17T04:04:08;100677.00;;;11.44;100.00
71004;BME280;59025;42.050;-8.660;2022-12-17T04:07:05;100685.13;;;11.41;100.00
71004;BME280;59025;42.050;-8.660;2022-12-17T04:09:50;100689.88;;;11.44;100.00
71004;BME280;59025;42.050;-8.660;2022-12-17T04:12:34;100695.03;;;11.44;100.00
71004;BME280;59025;42.050;-8.660;2022-12-17T04:15:19;100675.59;;;11.54;100.00
71004;BME280;59025;42.050;-8.660;2022-12-17T04:18:03;100667.09;;;11.47;100.00
71004;BME280;59025;42.050;-8.660;2022-12-17T04:20:48;100677.22;;;11.36;100.00
71004;BME280;59025;42.050;-8.660;2022-12-17T04:23:34;100687.53;;;11.29;100.00
71004;BME280;59025;42.050;-8.660;2022-12-17T04:26:18;100687.16;;;11.26;100.00
71004;BME280;59025;42.050;-8.660;2022-12-17T04:29:03;100684.78;;;11.24;100.00
71004;BME280;59025;42.050;-8.660;2022-12-17T04:31:47;100691.09;;;11.22;100.00
71004;BME280;59025;42.050;-8.660;2022-12-17T04:34:31;100694.06;;;11.19;100.00
71004;BME280;59025;42.050;-8.660;2022-12-17T04:37:16;100688.34;;;11.17;100.00
71004;BME280;59025;42.050;-8.660;2022-12-17T04:40:02;100691.50;;;11.19;100.00
71004;BME280;59025;42.050;-8.660;2022-12-17T04:42:52;100694.06;;;11.19;100.00
71004;BME280;59025;42.050;-8.660;2022-12-17T04:45:37;100693.88;;;11.14;100.00
71004;BME280;59025;42.050;-8.660;2022-12-17T04:48:21;100695.47;;;11.08;100.00
71004;BME280;59025;42.050;-8.660;2022-12-17T04:51:06;100693.88;;;11.07;100.00
71004;BME280;59025;42.050;-8.660;2022-12-17T04:53:51;100690.91;;;11.10;100.00
71004;BME280;59025;42.050;-8.660;2022-12-17T04:56:37;100688.56;;;11.09;100.00
71004;BME280;59025;42.050;-8.660;2022-12-17T04:59:21;100695.09;;;11.05;100.00
71004;BME280;59025;42.050;-8.660;2022-12-17T05:02:06;100703.97;;;10.96;100.00
71004;BME280;59025;42.050;-8.660;2022-12-17T05:04:50;100719.63;;;10.88;100.00
71004;BME280;59025;42.050;-8.660;2022-12-17T05:07:35;100736.25;;;10.72;100.00
71004;BME280;59025;42.050;-8.660;2022-12-17T05:10:19;100731.53;;;10.95;100.00
71004;BME280;59025;42.050;-8.660;2022-12-17T05:13:05;100708.53;;;11.07;100.00
71004;BME280;59025;42.050;-8.660;2022-12-17T05:15:54;100725.38;;;11.09;100.00
71004;BME280;59025;42.050;-8.660;2022-12-17T05:18:47;100715.69;;;11.11;100.00
71004;BME280;59025;42.050;-8.660;2022-12-17T05:21:32;100714.31;;;11.09;100.00
71004;BME280;59025;42.050;-8.660;2022-12-17T05:24:16;100711.31;;;11.12;100.00
71004;BME280;59025;42.050;-8.660;2022-12-17T05:27:00;100706.16;;;11.18;100.00
71004;BME280;59025;42.050;-8.660;2022-12-17T05:29:46;100710.72;;;11.16;100.00
71004;BME280;59025;42.050;-8.660;2022-12-17T05:32:31;100712.69;;;11.14;100.00
71004;BME280;59025;42.050;-8.660;2022-12-17T05:35:15;100721.63;;;11.12;100.00
71004;BME280;59025;42.050;-8.660;2022-12-17T05:38:09;100718.66;;;11.15;100.00
71004;BME280;59025;42.050;-8.660;2022-12-17T05:40:55;100721.81;;;11.17;100.00
71004;BME280;59025;42.050;-8.660;2022-12-17T05:43:40;100742.63;;;11.09;100.00
71004;BME280;59025;42.050;-8.660;2022-12-17T05:46:27;100748.56;;;11.16;100.00
71004;BME280;59025;42.050;-8.660;2022-12-17T05:49:12;100740.03;;;11.15;100.00
71004;BME280;59025;42.050;-8.660;2022-12-17T05:51:57;100751.31;;;11.14;100.00
71004;BME280;59025;42.050;-8.660;2022-12-17T05:54:41;100743.59;;;11.14;100.00
71004;BME280;59025;42.050;-8.660;2022-12-17T05:57:26;100751.13;;;11.09;100.00
71004;BME280;59025;42.050;-8.660;2022-12-17T06:00:11;100748.56;;;11.16;100.00
71004;BME280;59025;42.050;-8.660;2022-12-17T06:02:58;100772.31;;;11.05;100.00
71004;BME280;59025;42.050;-8.660;2022-12-17T06:05:43;100780.59;;;10.87;100.00
71004;BME280;59025;42.050;-8.660;2022-12-17T06:08:27;100785.53;;;10.82;100.00
71004;BME280;59025;42.050;-8.660;2022-12-17T06:11:12;100782.41;;;11.00;100.00
71004;BME280;59025;42.050;-8.660;2022-12-17T06:13:56;100764.00;;;11.16;100.00
71004;BME280;59025;42.050;-8.660;2022-12-17T06:16:40;100758.84;;;11.29;100.00
71004;BME280;59025;42.050;-8.660;2022-12-17T06:19:26;100779.47;;;11.16;100.00
71004;BME280;59025;42.050;-8.660;2022-12-17T06:22:11;100786.59;;;11.07;100.00
71004;BME280;59025;42.050;-8.660;2022-12-17T06:24:55;100795.66;;;10.97;100.00
71004;BME280;59025;42.050;-8.660;2022-12-17T06:27:40;100793.09;;;11.03;100.00
71004;BME280;59025;42.050;-8.660;2022-12-17T06:30:24;100790.53;;;11.03;100.00
71004;BME280;59025;42.050;-8.660;2022-12-17T06:33:10;100785.78;;;11.00;100.00
71004;BME280;59025;42.050;-8.660;2022-12-17T06:35:57;100790.09;;;10.93;100.00
71004;BME280;59025;42.050;-8.660;2022-12-17T06:38:50;100800.63;;;10.92;100.00
71004;BME280;59025;42.050;-8.660;2022-12-17T06:41:35;100793.69;;;10.92;100.00
71004;BME280;59025;42.050;-8.660;2022-12-17T06:44:19;100806.94;;;10.83;100.00
71004;BME280;59025;42.050;-8.660;2022-12-17T06:47:04;100803.19;;;10.92;100.00
71004;BME280;59025;42.050;-8.660;2022-12-17T06:49:48;100802.19;;;10.99;100.00
71004;BME280;59025;42.050;-8.660;2022-12-17T06:52:34;100810.50;;;10.82;100.00
71004;BME280;59025;42.050;-8.660;2022-12-17T06:55:18;100825.63;;;10.51;100.00
71004;BME280;59025;42.050;-8.660;2022-12-17T06:58:03;100840.81;;;10.39;100.00
71004;BME280;59025;42.050;-8.660;2022-12-17T07:00:47;100837.84;;;10.42;100.00
71004;BME280;59025;42.050;-8.660;2022-12-17T07:03:32;100834.69;;;10.40;100.00
71004;BME280;59025;42.050;-8.660;2022-12-17T07:06:16;100830.81;;;10.57;100.00
71004;BME280;59025;42.050;-8.660;2022-12-17T07:09:02;100812.63;;;10.72;100.00
71004;BME280;59025;42.050;-8.660;2022-12-17T07:11:55;100812.41;;;10.67;100.00
71004;BME280;59025;42.050;-8.660;2022-12-17T07:14:39;100815.53;;;10.56;100.00
71004;BME280;59025;42.050;-8.660;2022-12-17T07:17:24;100831.28;;;10.33;100.00
71004;BME280;59025;42.050;-8.660;2022-12-17T07:20:09;100846.09;;;10.25;100.00
71004;BME280;59025;42.050;-8.660;2022-12-17T07:22:54;100862.47;;;9.96;100.00
71004;BME280;59025;42.050;-8.660;2022-12-17T07:25:41;100856.38;;;10.25;100.00
71004;BME280;59025;42.050;-8.660;2022-12-17T07:28:25;100838.63;;;10.36;100.00
71004;BME280;59025;42.050;-8.660;2022-12-17T07:31:18;100858.31;;;10.23;100.00
71004;BME280;59025;42.050;-8.660;2022-12-17T07:34:03;100857.41;;;10.37;100.00
71004;BME280;59025;42.050;-8.660;2022-12-17T07:36:50;100861.09;;;10.21;100.00
71004;BME280;59025;42.050;-8.660;2022-12-17T07:39:34;100865.91;;;10.31;100.00
71004;BME280;59025;42.050;-8.660;2022-12-17T07:42:23;100866.69;;;10.31;100.00
71004;BME280;59025;42.050;-8.660;2022-12-17T07:45:08;100856.72;;;10.56;100.00
71004;BME280;59025;42.050;-8.660;2022-12-17T07:47:52;100831.25;;;10.74;100.00
71004;BME280;59025;42.050;-8.660;2022-12-17T07:50:37;100854.53;;;10.59;100.00
71004;BME280;59025;42.050;-8.660;2022-12-17T07:53:21;100859.28;;;10.49;100.00
71004;BME280;59025;42.050;-8.660;2022-12-17T07:56:06;100863.56;;;10.36;100.00
71004;BME280;59025;42.050;-8.660;2022-12-17T07:58:52;100853.53;;;10.54;100.00
71004;BME280;59025;42.050;-8.660;2022-12-17T08:01:37;100836.72;;;10.51;100.00
71004;BME280;59025;42.050;-8.660;2022-12-17T08:04:21;100844.38;;;10.38;100.00
71004;BME280;59025;42.050;-8.660;2022-12-17T08:07:06;100850.06;;;10.27;100.00
71004;BME280;59025;42.050;-8.660;2022-12-17T08:09:50;100861.81;;;10.09;100.00
71004;BME280;59025;42.050;-8.660;2022-12-17T08:12:35;100882.38;;;9.88;100.00
71004;BME280;59025;42.050;-8.660;2022-12-17T08:15:21;100900.44;;;9.52;100.00
71004;BME280;59025;42.050;-8.660;2022-12-17T08:18:05;100908.09;;;9.67;100.00
71004;BME280;59025;42.050;-8.660;2022-12-17T08:20:50;100905.97;;;9.49;100.00
71004;BME280;59025;42.050;-8.660;2022-12-17T08:23:34;100921.91;;;9.45;100.00
71004;BME280;59025;42.050;-8.660;2022-12-17T08:26:19;100919.84;;;9.55;100.00
71004;BME280;59025;42.050;-8.660;2022-12-17T08:29:03;100927.47;;;9.69;100.00
71004;BME280;59025;42.050;-8.660;2022-12-17T08:31:49;100933.69;;;9.75;100.00
71004;BME280;59025;42.050;-8.660;2022-12-17T08:34:34;100938.69;;;10.04;100.00
71004;BME280;59025;42.050;-8.660;2022-12-17T08:37:18;100930.78;;;10.33;100.00
71004;BME280;59025;42.050;-8.660;2022-12-17T08:40:03;100914.16;;;10.69;100.00
71004;BME280;59025;42.050;-8.660;2022-12-17T08:42:56;100896.44;;;10.87;100.00
71004;BME280;59025;42.050;-8.660;2022-12-17T08:45:45;100880.06;;;11.08;100.00
71004;BME280;59025;42.050;-8.660;2022-12-17T08:48:32;100885.41;;;11.13;100.00
71004;BME280;59025;42.050;-8.660;2022-12-17T08:51:17;100896.13;;;11.16;100.00
71004;BME280;59025;42.050;-8.660;2022-12-17T08:54:01;100904.28;;;11.20;100.00
71004;BME280;59025;42.050;-8.660;2022-12-17T08:56:46;100899.13;;;11.26;100.00
71004;BME280;59025;42.050;-8.660;2022-12-17T08:59:31;100898.72;;;11.36;100.00
71004;BME280;59025;42.050;-8.660;2022-12-17T09:02:15;100909.44;;;11.33;100.00
71004;BME280;59025;42.050;-8.660;2022-12-17T09:05:01;100923.09;;;11.33;100.00
71004;BME280;59025;42.050;-8.660;2022-12-17T09:07:46;100923.69;;;11.29;100.00
71004;BME280;59025;42.050;-8.660;2022-12-17T09:10:30;100920.50;;;11.20;100.00
71004;BME280;59025;42.050;-8.660;2022-12-17T09:13:15;100933.59;;;11.25;100.00
71004;BME280;59025;42.050;-8.660;2022-12-17T09:15:59;100940.31;;;11.20;100.00
71004;BME280;59025;42.050;-8.660;2022-12-17T09:18:43;100950.56;;;11.07;100.00
71004;BME280;59025;42.050;-8.660;2022-12-17T09:21:29;100958.25;;;10.94;100.00
71004;BME280;59025;42.050;-8.660;2022-12-17T09:24:15;100973.09;;;10.98;100.00
71004;BME280;59025;42.050;-8.660;2022-12-17T09:27:08;100965.25;;;11.13;100.00
71004;BME280;59025;42.050;-8.660;2022-12-17T09:29:53;100969.22;;;11.15;100.00
71004;BME280;59025;42.050;-8.660;2022-12-17T09:32:37;100972.41;;;11.24;100.00
71004;BME280;59025;42.050;-8.660;2022-12-17T09:35:22;100971.28;;;11.33;100.00
71004;BME280;59025;42.050;-8.660;2022-12-17T09:38:11;100979.00;;;11.33;100.00
71004;BME280;59025;42.050;-8.660;2022-12-17T09:41:01;100991.66;;;11.28;100.00
71004;BME280;59025;42.050;-8.660;2022-12-17T09:43:53;101002.94;;;11.27;100.00
71004;BME280;59025;42.050;-8.660;2022-12-17T09:46:46;101011.41;;;11.14;100.00
71004;BME280;59025;42.050;-8.660;2022-12-17T09:49:34;101023.84;;;11.04;100.00
71004;BME280;59025;42.050;-8.660;2022-12-17T09:52:23;101031.09;;;10.88;100.00
71004;BME280;59025;42.050;-8.660;2022-12-17T09:55:19;101045.06;;;10.79;100.00
71004;BME280;59025;42.050;-8.660;2022-12-17T09:58:04;101051.56;;;11.02;100.00
71004;BME280;59025;42.050;-8.660;2022-12-17T10:00:51;101063.16;;;10.85;100.00
71004;BME280;59025;42.050;-8.660;2022-12-17T10:03:37;101071.75;;;10.99;100.00
71004;BME280;59025;42.050;-8.660;2022-12-17T10:06:25;101071.16;;;11.03;100.00
71004;BME280;59025;42.050;-8.660;2022-12-17T10:09:13;101064.47;;;11.09;100.00
71004;BME280;59025;42.050;-8.660;2022-12-17T10:12:10;101062.25;;;11.40;100.00
71004;BME280;59025;42.050;-8.660;2022-12-17T10:14:57;101055.19;;;11.55;100.00
71004;BME280;59025;42.050;-8.660;2022-12-17T10:17:42;101075.47;;;11.64;100.00
71004;BME280;59025;42.050;-8.660;2022-12-17T10:20:31;101071.28;;;11.63;100.00
71004;BME280;59025;42.050;-8.660;2022-12-17T10:23:24;101071.50;;;11.68;100.00
71004;BME280;59025;42.050;-8.660;2022-12-17T10:26:15;101076.25;;;11.65;100.00
71004;BME280;59025;42.050;-8.660;2022-12-17T10:29:04;101076.44;;;11.63;100.00
71004;BME280;59025;42.050;-8.660;2022-12-17T10:31:50;101076.88;;;11.73;100.00
71004;BME280;59025;42.050;-8.660;2022-12-17T10:34:36;101062.66;;;11.97;100.00
71004;BME280;59025;42.050;-8.660;2022-12-17T10:37:21;101057.94;;;12.13;100.00
71004;BME280;59025;42.050;-8.660;2022-12-17T10:40:19;101070.63;;;12.28;100.00
71004;BME280;59025;42.050;-8.660;2022-12-17T10:43:21;101076.59;;;12.35;100.00
71004;BME280;59025;42.050;-8.660;2022-12-17T10:46:07;101077.78;;;12.39;100.00
71004;BME280;59025;42.050;-8.660;2022-12-17T10:49:02;101080.00;;;12.55;100.00
71004;BME280;59025;42.050;-8.660;2022-12-17T10:51:47;101075.59;;;12.62;100.00
71004;BME280;59025;42.050;-8.660;2022-12-17T10:54:33;101076.19;;;12.70;100.00
71004;BME280;59025;42.050;-8.660;2022-12-17T10:57:23;101078.16;;;12.75;100.00
71004;BME280;59025;42.050;-8.660;2022-12-17T11:00:24;101090.09;;;12.76;100.00
71004;BME280;59025;42.050;-8.660;2022-12-17T11:03:25;101091.66;;;12.77;100.00
71004;BME280;59025;42.050;-8.660;2022-12-17T11:06:12;101092.44;;;12.90;100.00
71004;BME280;59025;42.050;-8.660;2022-12-17T11:09:00;101088.91;;;12.98;100.00
71004;BME280;59025;42.050;-8.660;2022-12-17T11:11:47;101089.09;;;12.96;100.00
71004;BME280;59025;42.050;-8.660;2022-12-17T11:14:43;101085.31;;;12.92;100.00
71004;BME280;59025;42.050;-8.660;2022-12-17T11:17:31;101097.41;;;13.05;100.00
71004;BME280;59025;42.050;-8.660;2022-12-17T11:20:23;101098.00;;;13.20;100.00
71004;BME280;59025;42.050;-8.660;2022-12-17T11:23:13;101103.16;;;13.20;100.00
71004;BME280;59025;42.050;-8.660;2022-12-17T11:26:03;101097.59;;;13.23;100.00
71004;BME280;59025;42.050;-8.660;2022-12-17T11:28:49;101108.31;;;13.26;100.00
71004;BME280;59025;42.050;-8.660;2022-12-17T11:31:45;101101.97;;;13.29;100.00
71004;BME280;59025;42.050;-8.660;2022-12-17T11:34:46;101092.72;;;13.52;100.00
71004;BME280;59025;42.050;-8.660;2022-12-17T11:37:42;101095.38;;;13.76;100.00
71004;BME280;59025;42.050;-8.660;2022-12-17T11:40:32;101087.53;;;13.96;100.00
71004;BME280;59025;42.050;-8.660;2022-12-17T11:43:22;101080.41;;;14.22;100.00
71004;BME280;59025;42.050;-8.660;2022-12-17T11:46:18;101064.16;;;14.40;100.00
71004;BME280;59025;42.050;-8.660;2022-12-17T11:49:12;101044.34;;;14.52;100.00
71004;BME280;59025;42.050;-8.660;2022-12-17T11:52:08;101048.25;;;14.61;100.00
71004;BME280;59025;42.050;-8.660;2022-12-17T11:55:00;101045.91;;;14.77;100.00
71004;BME280;59025;42.050;-8.660;2022-12-17T11:57:53;101050.97;;;14.90;100.00
71004;BME280;59025;42.050;-8.660;2022-12-17T12:00:49;101052.69;;;14.96;100.00
71004;BME280;59025;42.050;-8.660;2022-12-17T12:03:45;101052.03;;;15.01;100.00
71004;BME280;59025;42.050;-8.660;2022-12-17T12:06:38;101052.47;;;15.16;100.00
71004;BME280;59025;42.050;-8.660;2022-12-17T12:09:35;101045.78;;;15.26;100.00
71004;BME280;59025;42.050;-8.660;2022-12-17T12:12:45;101043.47;;;15.00;100.00
71004;BME280;59025;42.050;-8.660;2022-12-17T12:15:40;101039.66;;;14.85;100.00
71004;BME280;59025;42.050;-8.660;2022-12-17T12:18:36;101043.44;;;14.64;100.00
71004;BME280;59025;42.050;-8.660;2022-12-17T12:21:48;101046.25;;;14.63;100.00
71004;BME280;59025;42.050;-8.660;2022-12-17T12:24:50;101029.63;;;14.70;100.00
71004;BME280;59025;42.050;-8.660;2022-12-17T12:27:46;101035.13;;;14.80;100.00
71004;BME280;59025;42.050;-8.660;2022-12-17T12:30:42;101015.97;;;14.99;100.00
71004;BME280;59025;42.050;-8.660;2022-12-17T12:33:36;101018.00;;;15.15;100.00
71004;BME280;59025;42.050;-8.660;2022-12-17T12:36:24;101019.56;;;15.16;100.00
71004;BME280;59025;42.050;-8.660;2022-12-17T12:39:12;101018.41;;;15.30;100.00
71004;BME280;59025;42.050;-8.660;2022-12-17T12:42:03;101015.22;;;15.28;100.00
71004;BME280;59025;42.050;-8.660;2022-12-17T12:44:58;101010.03;;;15.28;100.00
71004;BME280;59025;42.050;-8.660;2022-12-17T12:47:52;101007.31;;;15.23;100.00
71004;BME280;59025;42.050;-8.660;2022-12-17T12:50:45;101010.34;;;15.38;100.00
71004;BME280;59025;42.050;-8.660;2022-12-17T12:53:32;101014.22;;;15.47;100.00
71004;BME280;59025;42.050;-8.660;2022-12-17T12:56:25;100988.59;;;15.39;100.00
71004;BME280;59025;42.050;-8.660;2022-12-17T12:59:14;100998.97;;;15.39;100.00
71004;BME280;59025;42.050;-8.660;2022-12-17T13:02:24;100983.34;;;15.28;100.00
71004;BME280;59025;42.050;-8.660;2022-12-17T13:05:26;100987.94;;;15.26;100.00
71004;BME280;59025;42.050;-8.660;2022-12-17T13:08:20;101003.44;;;15.14;100.00
71004;BME280;59025;42.050;-8.660;2022-12-17T13:10:51;100991.41;;;15.20;100.00
71004;BME280;59025;42.050;-8.660;2022-12-17T13:13:31;100993.22;;;15.19;100.00
71004;BME280;59025;42.050;-8.660;2022-12-17T13:16:03;100991.34;;;15.26;100.00
71004;BME280;59025;42.050;-8.660;2022-12-17T13:18:48;100973.03;;;15.39;100.00
71004;BME280;59025;42.050;-8.660;2022-12-17T13:21:25;100952.16;;;15.34;100.00
71004;BME280;59025;42.050;-8.660;2022-12-17T13:23:55;100963.06;;;15.54;100.00
71004;BME280;59025;42.050;-8.660;2022-12-17T13:26:40;100959.28;;;15.80;100.00
71004;BME280;59025;42.050;-8.660;2022-12-17T13:29:17;100966.53;;;16.01;100.00
71004;BME280;59025;42.050;-8.660;2022-12-17T13:31:57;100963.72;;;16.14;100.00
71004;BME280;59025;42.050;-8.660;2022-12-17T13:37:25;100952.78;;;16.35;100.00
71004;BME280;59025;42.050;-8.660;2022-12-17T13:40:02;100941.03;;;16.32;100.00
71004;BME280;59025;42.050;-8.660;2022-12-17T13:42:33;100941.63;;;16.23;100.00
71004;BME280;59025;42.050;-8.660;2022-12-17T13:45:02;100940.69;;;16.17;100.00
71004;BME280;59025;42.050;-8.660;2022-12-17T13:47:32;100942.63;;;16.10;100.00
71004;BME280;59025;42.050;-8.660;2022-12-17T13:50:17;100946.56;;;16.13;100.00
71004;BME280;59025;42.050;-8.660;2022-12-17T13:52:45;100944.97;;;15.89;100.00
71004;BME280;59025;42.050;-8.660;2022-12-17T13:55:17;100954.22;;;15.85;100.00
71004;BME280;59025;42.050;-8.660;2022-12-17T13:57:47;100947.41;;;15.72;100.00
71004;BME280;59025;42.050;-8.660;2022-12-17T14:00:21;100951.03;;;15.71;100.00
71004;BME280;59025;42.050;-8.660;2022-12-17T14:02:49;100954.94;;;15.62;100.00
71004;BME280;59025;42.050;-8.660;2022-12-17T14:05:25;100951.59;;;15.62;100.00
71004;BME280;59025;42.050;-8.660;2022-12-17T14:07:53;100954.34;;;15.49;100.00
71004;BME280;59025;42.050;-8.660;2022-12-17T14:10:24;100947.16;;;15.51;100.00
71004;BME280;59025;42.050;-8.660;2022-12-17T14:12:59;100951.66;;;15.55;100.00